Toyota, Japan
Current Conditions -  °F | °C
As of 3:30 PM on Thursday 29 Jan 2015 (Local Time) from RJGG Reporting Station
Broken Clouds Broken Clouds  
Wind Chill: 39°   Ceiling: Unl
Heat Index: 43°   Visibility: 6mi
Dew Point: 19°   Wind: 6mph
Humidity: 39%   Direction: 50°NE
Pressure: 30.24"   Gusts: NA
Location:  35.09°N, 137.16°E
Report Text: RJGG 290630Z 05005KT 9999 FEW020 BKN/// 06/M07 Q1024 NOSIG
Loading
Personal Weather Stations






























Interactive Weather Map New forecast layout! Learn more

10-Day Weather Forecast

Advertisements
Track Severe Weather on mobile